sensor_id;sensor_type;location;lat;lon;timestamp;P1;durP1;ratioP1;P2;durP2;ratioP2
31618;SDS011;18230;51.502;7.108;2023-06-26T00:01:12;16.30;;;9.23;;
31618;SDS011;18230;51.502;7.108;2023-06-26T00:06:13;17.83;;;11.23;;
31618;SDS011;18230;51.502;7.108;2023-06-26T00:11:14;13.93;;;8.18;;
31618;SDS011;18230;51.502;7.108;2023-06-26T00:16:15;7.57;;;6.70;;
31618;SDS011;18230;51.502;7.108;2023-06-26T00:21:15;17.33;;;10.85;;
31618;SDS011;18230;51.502;7.108;2023-06-26T00:26:16;8.23;;;6.90;;
31618;SDS011;18230;51.502;7.108;2023-06-26T00:31:17;15.20;;;9.50;;
31618;SDS011;18230;51.502;7.108;2023-06-26T00:36:17;13.20;;;7.63;;
31618;SDS011;18230;51.502;7.108;2023-06-26T00:41:18;9.43;;;6.93;;
31618;SDS011;18230;51.502;7.108;2023-06-26T00:46:19;9.48;;;6.63;;
31618;SDS011;18230;51.502;7.108;2023-06-26T00:51:20;9.05;;;6.72;;
31618;SDS011;18230;51.502;7.108;2023-06-26T00:56:21;45.80;;;30.65;;
31618;SDS011;18230;51.502;7.108;2023-06-26T01:01:22;13.40;;;9.35;;
31618;SDS011;18230;51.502;7.108;2023-06-26T01:06:25;9.00;;;7.00;;
31618;SDS011;18230;51.502;7.108;2023-06-26T01:11:31;13.30;;;6.83;;
31618;SDS011;18230;51.502;7.108;2023-06-26T01:16:32;9.63;;;6.95;;
31618;SDS011;18230;51.502;7.108;2023-06-26T01:21:34;8.98;;;6.93;;
31618;SDS011;18230;51.502;7.108;2023-06-26T01:26:38;15.15;;;10.13;;
31618;SDS011;18230;51.502;7.108;2023-06-26T01:31:42;14.77;;;10.15;;
31618;SDS011;18230;51.502;7.108;2023-06-26T01:36:46;16.65;;;10.90;;
31618;SDS011;18230;51.502;7.108;2023-06-26T01:41:47;9.27;;;6.80;;
31618;SDS011;18230;51.502;7.108;2023-06-26T01:57:47;11.70;;;9.35;;
31618;SDS011;18230;51.502;7.108;2023-06-26T02:02:52;8.80;;;7.88;;
31618;SDS011;18230;51.502;7.108;2023-06-26T02:07:52;14.20;;;10.82;;
31618;SDS011;18230;51.502;7.108;2023-06-26T02:12:53;14.35;;;10.25;;
31618;SDS011;18230;51.502;7.108;2023-06-26T02:17:54;14.13;;;12.23;;
31618;SDS011;18230;51.502;7.108;2023-06-26T02:22:55;16.02;;;13.25;;
31618;SDS011;18230;51.502;7.108;2023-06-26T02:27:55;10.27;;;8.05;;
31618;SDS011;18230;51.502;7.108;2023-06-26T02:32:56;8.77;;;6.68;;
31618;SDS011;18230;51.502;7.108;2023-06-26T02:37:57;9.05;;;6.57;;
31618;SDS011;18230;51.502;7.108;2023-06-26T02:42:57;9.15;;;6.57;;
31618;SDS011;18230;51.502;7.108;2023-06-26T02:47:58;9.93;;;7.28;;
31618;SDS011;18230;51.502;7.108;2023-06-26T02:52:59;9.18;;;6.97;;
31618;SDS011;18230;51.502;7.108;2023-06-26T02:58:00;9.75;;;6.35;;
31618;SDS011;18230;51.502;7.108;2023-06-26T03:03:00;10.50;;;7.20;;
31618;SDS011;18230;51.502;7.108;2023-06-26T03:08:02;9.20;;;6.43;;
31618;SDS011;18230;51.502;7.108;2023-06-26T03:13:03;8.32;;;6.40;;
31618;SDS011;18230;51.502;7.108;2023-06-26T03:18:04;13.20;;;7.05;;
31618;SDS011;18230;51.502;7.108;2023-06-26T03:23:04;8.63;;;6.32;;
31618;SDS011;18230;51.502;7.108;2023-06-26T03:28:05;11.35;;;6.85;;
31618;SDS011;18230;51.502;7.108;2023-06-26T03:33:06;9.38;;;6.68;;
31618;SDS011;18230;51.502;7.108;2023-06-26T03:38:07;14.60;;;7.10;;
31618;SDS011;18230;51.502;7.108;2023-06-26T03:43:07;9.23;;;6.80;;
31618;SDS011;18230;51.502;7.108;2023-06-26T03:48:08;9.25;;;6.95;;
31618;SDS011;18230;51.502;7.108;2023-06-26T03:53:09;12.27;;;7.05;;
31618;SDS011;18230;51.502;7.108;2023-06-26T03:58:09;9.50;;;7.43;;
31618;SDS011;18230;51.502;7.108;2023-06-26T04:03:10;10.18;;;7.32;;
31618;SDS011;18230;51.502;7.108;2023-06-26T04:08:11;11.70;;;7.63;;
31618;SDS011;18230;51.502;7.108;2023-06-26T04:13:11;9.32;;;6.88;;
31618;SDS011;18230;51.502;7.108;2023-06-26T04:18:13;13.73;;;7.70;;
31618;SDS011;18230;51.502;7.108;2023-06-26T04:23:14;14.30;;;7.75;;
31618;SDS011;18230;51.502;7.108;2023-06-26T04:28:15;12.68;;;7.85;;
31618;SDS011;18230;51.502;7.108;2023-06-26T04:33:15;11.23;;;6.93;;
31618;SDS011;18230;51.502;7.108;2023-06-26T04:38:16;11.60;;;8.40;;
31618;SDS011;18230;51.502;7.108;2023-06-26T04:43:17;13.27;;;8.07;;
31618;SDS011;18230;51.502;7.108;2023-06-26T04:48:18;14.52;;;8.02;;
31618;SDS011;18230;51.502;7.108;2023-06-26T04:53:18;12.07;;;7.60;;
31618;SDS011;18230;51.502;7.108;2023-06-26T04:58:20;13.27;;;6.97;;
31618;SDS011;18230;51.502;7.108;2023-06-26T05:03:21;12.63;;;7.45;;
31618;SDS011;18230;51.502;7.108;2023-06-26T05:08:23;12.35;;;6.78;;
31618;SDS011;18230;51.502;7.108;2023-06-26T05:13:26;14.43;;;6.25;;
31618;SDS011;18230;51.502;7.108;2023-06-26T05:18:27;11.32;;;6.75;;
31618;SDS011;18230;51.502;7.108;2023-06-26T05:23:30;9.02;;;5.90;;
31618;SDS011;18230;51.502;7.108;2023-06-26T05:28:32;9.82;;;6.53;;
31618;SDS011;18230;51.502;7.108;2023-06-26T05:33:34;18.98;;;8.38;;
31618;SDS011;18230;51.502;7.108;2023-06-26T05:38:37;16.27;;;7.18;;
31618;SDS011;18230;51.502;7.108;2023-06-26T05:43:38;15.82;;;7.50;;
31618;SDS011;18230;51.502;7.108;2023-06-26T05:48:38;14.43;;;7.13;;
31618;SDS011;18230;51.502;7.108;2023-06-26T05:53:39;16.92;;;7.22;;
31618;SDS011;18230;51.502;7.108;2023-06-26T05:58:40;13.93;;;7.22;;
31618;SDS011;18230;51.502;7.108;2023-06-26T06:03:42;15.23;;;6.93;;
31618;SDS011;18230;51.502;7.108;2023-06-26T06:08:43;10.63;;;6.88;;
31618;SDS011;18230;51.502;7.108;2023-06-26T06:13:44;20.05;;;6.47;;
31618;SDS011;18230;51.502;7.108;2023-06-26T06:18:45;16.60;;;7.15;;
31618;SDS011;18230;51.502;7.108;2023-06-26T06:23:46;13.93;;;6.68;;
31618;SDS011;18230;51.502;7.108;2023-06-26T06:28:48;12.85;;;7.00;;
31618;SDS011;18230;51.502;7.108;2023-06-26T06:33:48;20.33;;;6.32;;
31618;SDS011;18230;51.502;7.108;2023-06-26T06:38:49;16.60;;;6.32;;
31618;SDS011;18230;51.502;7.108;2023-06-26T06:43:50;14.57;;;5.95;;
31618;SDS011;18230;51.502;7.108;2023-06-26T06:48:50;18.90;;;7.25;;
31618;SDS011;18230;51.502;7.108;2023-06-26T06:53:51;13.98;;;6.65;;
31618;SDS011;18230;51.502;7.108;2023-06-26T06:58:52;21.83;;;6.35;;
31618;SDS011;18230;51.502;7.108;2023-06-26T07:03:53;15.88;;;6.50;;
31618;SDS011;18230;51.502;7.108;2023-06-26T07:08:53;21.08;;;7.85;;
31618;SDS011;18230;51.502;7.108;2023-06-26T07:13:55;18.00;;;7.00;;
31618;SDS011;18230;51.502;7.108;2023-06-26T07:18:56;17.02;;;6.93;;
31618;SDS011;18230;51.502;7.108;2023-06-26T07:23:57;20.25;;;7.65;;
31618;SDS011;18230;51.502;7.108;2023-06-26T07:28:58;18.88;;;7.80;;
31618;SDS011;18230;51.502;7.108;2023-06-26T07:33:59;24.40;;;8.32;;
31618;SDS011;18230;51.502;7.108;2023-06-26T07:39:00;17.75;;;8.20;;
31618;SDS011;18230;51.502;7.108;2023-06-26T07:44:00;17.02;;;7.60;;
31618;SDS011;18230;51.502;7.108;2023-06-26T07:49:01;20.38;;;7.75;;
31618;SDS011;18230;51.502;7.108;2023-06-26T07:54:02;20.02;;;8.80;;
31618;SDS011;18230;51.502;7.108;2023-06-26T07:59:03;19.05;;;8.85;;
31618;SDS011;18230;51.502;7.108;2023-06-26T08:04:04;24.70;;;8.45;;
31618;SDS011;18230;51.502;7.108;2023-06-26T08:09:05;25.85;;;8.73;;
31618;SDS011;18230;51.502;7.108;2023-06-26T08:14:08;21.80;;;11.00;;
31618;SDS011;18230;51.502;7.108;2023-06-26T08:19:08;22.58;;;13.13;;
31618;SDS011;18230;51.502;7.108;2023-06-26T08:24:10;23.63;;;13.77;;
31618;SDS011;18230;51.502;7.108;2023-06-26T08:29:13;34.33;;;15.93;;
31618;SDS011;18230;51.502;7.108;2023-06-26T08:34:13;28.65;;;13.43;;
31618;SDS011;18230;51.502;7.108;2023-06-26T08:39:14;22.60;;;11.43;;
31618;SDS011;18230;51.502;7.108;2023-06-26T08:44:15;27.17;;;10.90;;
31618;SDS011;18230;51.502;7.108;2023-06-26T08:49:18;17.83;;;8.18;;
31618;SDS011;18230;51.502;7.108;2023-06-26T08:54:30;24.75;;;9.35;;
31618;SDS011;18230;51.502;7.108;2023-06-26T08:59:36;18.75;;;7.15;;
31618;SDS011;18230;51.502;7.108;2023-06-26T09:04:38;18.25;;;6.60;;
31618;SDS011;18230;51.502;7.108;2023-06-26T09:09:40;15.85;;;5.15;;
31618;SDS011;18230;51.502;7.108;2023-06-26T09:14:40;17.83;;;5.57;;
31618;SDS011;18230;51.502;7.108;2023-06-26T09:19:44;15.13;;;6.00;;
31618;SDS011;18230;51.502;7.108;2023-06-26T09:24:46;15.90;;;5.75;;
31618;SDS011;18230;51.502;7.108;2023-06-26T09:29:47;17.90;;;6.30;;
31618;SDS011;18230;51.502;7.108;2023-06-26T09:34:51;13.23;;;5.93;;
31618;SDS011;18230;51.502;7.108;2023-06-26T09:39:53;15.27;;;6.78;;
31618;SDS011;18230;51.502;7.108;2023-06-26T09:44:53;18.83;;;6.00;;
31618;SDS011;18230;51.502;7.108;2023-06-26T09:49:55;21.63;;;5.57;;
31618;SDS011;18230;51.502;7.108;2023-06-26T09:55:08;14.68;;;5.40;;
31618;SDS011;18230;51.502;7.108;2023-06-26T10:00:10;14.13;;;6.32;;
31618;SDS011;18230;51.502;7.108;2023-06-26T10:05:12;13.05;;;5.18;;
31618;SDS011;18230;51.502;7.108;2023-06-26T10:10:13;12.20;;;4.97;;
31618;SDS011;18230;51.502;7.108;2023-06-26T10:15:15;8.82;;;3.92;;
31618;SDS011;18230;51.502;7.108;2023-06-26T10:20:16;9.20;;;3.78;;
31618;SDS011;18230;51.502;7.108;2023-06-26T10:25:18;12.70;;;4.13;;
31618;SDS011;18230;51.502;7.108;2023-06-26T10:30:21;9.30;;;4.22;;
31618;SDS011;18230;51.502;7.108;2023-06-26T10:35:27;12.07;;;4.22;;
31618;SDS011;18230;51.502;7.108;2023-06-26T10:40:28;11.73;;;4.25;;
31618;SDS011;18230;51.502;7.108;2023-06-26T10:45:43;10.07;;;4.00;;
31618;SDS011;18230;51.502;7.108;2023-06-26T10:50:49;12.95;;;4.03;;
31618;SDS011;18230;51.502;7.108;2023-06-26T10:55:59;15.00;;;4.80;;
31618;SDS011;18230;51.502;7.108;2023-06-26T11:06:12;16.30;;;4.32;;
31618;SDS011;18230;51.502;7.108;2023-06-26T11:11:15;8.90;;;4.47;;
31618;SDS011;18230;51.502;7.108;2023-06-26T11:16:17;6.88;;;3.60;;
31618;SDS011;18230;51.502;7.108;2023-06-26T11:21:18;13.90;;;4.20;;
31618;SDS011;18230;51.502;7.108;2023-06-26T11:26:22;6.82;;;3.40;;
31618;SDS011;18230;51.502;7.108;2023-06-26T11:31:26;8.40;;;2.60;;
31618;SDS011;18230;51.502;7.108;2023-06-26T11:36:31;5.03;;;2.45;;
31618;SDS011;18230;51.502;7.108;2023-06-26T11:41:33;7.93;;;2.92;;
31618;SDS011;18230;51.502;7.108;2023-06-26T11:46:35;9.25;;;2.60;;
31618;SDS011;18230;51.502;7.108;2023-06-26T11:51:36;8.73;;;2.70;;
31618;SDS011;18230;51.502;7.108;2023-06-26T11:56:37;10.55;;;2.10;;
31618;SDS011;18230;51.502;7.108;2023-06-26T12:01:41;4.30;;;2.10;;
31618;SDS011;18230;51.502;7.108;2023-06-26T12:06:47;7.63;;;2.50;;
31618;SDS011;18230;51.502;7.108;2023-06-26T12:11:51;5.78;;;2.17;;
31618;SDS011;18230;51.502;7.108;2023-06-26T12:16:54;6.50;;;2.35;;
31618;SDS011;18230;51.502;7.108;2023-06-26T12:21:55;10.10;;;2.08;;
31618;SDS011;18230;51.502;7.108;2023-06-26T12:26:56;3.65;;;1.60;;
31618;SDS011;18230;51.502;7.108;2023-06-26T12:31:57;4.43;;;1.58;;
31618;SDS011;18230;51.502;7.108;2023-06-26T12:37:02;5.35;;;2.17;;
31618;SDS011;18230;51.502;7.108;2023-06-26T12:42:07;3.22;;;1.58;;
31618;SDS011;18230;51.502;7.108;2023-06-26T12:47:08;3.95;;;1.60;;
31618;SDS011;18230;51.502;7.108;2023-06-26T12:52:14;4.75;;;1.77;;
31618;SDS011;18230;51.502;7.108;2023-06-26T12:57:15;8.27;;;2.05;;
31618;SDS011;18230;51.502;7.108;2023-06-26T13:02:16;6.00;;;1.70;;
31618;SDS011;18230;51.502;7.108;2023-06-26T13:07:17;4.55;;;1.65;;
31618;SDS011;18230;51.502;7.108;2023-06-26T13:12:18;5.95;;;1.95;;
31618;SDS011;18230;51.502;7.108;2023-06-26T13:17:19;5.05;;;1.92;;
31618;SDS011;18230;51.502;7.108;2023-06-26T13:22:20;3.88;;;1.50;;
31618;SDS011;18230;51.502;7.108;2023-06-26T13:27:21;7.07;;;1.95;;
31618;SDS011;18230;51.502;7.108;2023-06-26T13:32:21;4.80;;;1.60;;
31618;SDS011;18230;51.502;7.108;2023-06-26T13:37:22;5.63;;;1.90;;
31618;SDS011;18230;51.502;7.108;2023-06-26T13:42:23;5.75;;;1.60;;
31618;SDS011;18230;51.502;7.108;2023-06-26T13:47:23;4.03;;;1.25;;
31618;SDS011;18230;51.502;7.108;2023-06-26T13:52:24;4.35;;;1.48;;
31618;SDS011;18230;51.502;7.108;2023-06-26T13:57:25;5.97;;;1.48;;
31618;SDS011;18230;51.502;7.108;2023-06-26T14:02:27;3.95;;;1.60;;
31618;SDS011;18230;51.502;7.108;2023-06-26T14:07:29;9.57;;;1.73;;
31618;SDS011;18230;51.502;7.108;2023-06-26T14:12:29;2.58;;;1.63;;
31618;SDS011;18230;51.502;7.108;2023-06-26T14:17:30;6.10;;;1.67;;
31618;SDS011;18230;51.502;7.108;2023-06-26T14:22:31;2.97;;;1.63;;
31618;SDS011;18230;51.502;7.108;2023-06-26T14:27:33;7.22;;;2.10;;
31618;SDS011;18230;51.502;7.108;2023-06-26T14:32:34;8.23;;;1.60;;
31618;SDS011;18230;51.502;7.108;2023-06-26T14:37:35;8.43;;;1.70;;
31618;SDS011;18230;51.502;7.108;2023-06-26T14:42:37;5.78;;;1.75;;
31618;SDS011;18230;51.502;7.108;2023-06-26T14:47:37;3.20;;;1.75;;
31618;SDS011;18230;51.502;7.108;2023-06-26T14:52:38;4.45;;;1.67;;
31618;SDS011;18230;51.502;7.108;2023-06-26T14:57:39;10.25;;;2.03;;
31618;SDS011;18230;51.502;7.108;2023-06-26T15:02:39;3.67;;;1.73;;
31618;SDS011;18230;51.502;7.108;2023-06-26T15:07:41;4.05;;;1.65;;
31618;SDS011;18230;51.502;7.108;2023-06-26T15:12:42;3.92;;;1.70;;
31618;SDS011;18230;51.502;7.108;2023-06-26T15:17:43;5.93;;;1.70;;
31618;SDS011;18230;51.502;7.108;2023-06-26T15:22:44;3.70;;;1.70;;
31618;SDS011;18230;51.502;7.108;2023-06-26T15:27:45;6.68;;;2.13;;
31618;SDS011;18230;51.502;7.108;2023-06-26T15:32:45;5.40;;;1.52;;
31618;SDS011;18230;51.502;7.108;2023-06-26T15:37:47;6.63;;;2.08;;
31618;SDS011;18230;51.502;7.108;2023-06-26T15:42:50;7.03;;;2.00;;
31618;SDS011;18230;51.502;7.108;2023-06-26T15:47:53;8.25;;;2.03;;
31618;SDS011;18230;51.502;7.108;2023-06-26T15:52:53;4.78;;;1.50;;
31618;SDS011;18230;51.502;7.108;2023-06-26T15:57:54;6.43;;;1.80;;
31618;SDS011;18230;51.502;7.108;2023-06-26T16:02:55;6.30;;;1.75;;
31618;SDS011;18230;51.502;7.108;2023-06-26T16:07:56;12.20;;;1.90;;
31618;SDS011;18230;51.502;7.108;2023-06-26T16:12:56;2.80;;;2.00;;
31618;SDS011;18230;51.502;7.108;2023-06-26T16:17:57;3.90;;;1.77;;
31618;SDS011;18230;51.502;7.108;2023-06-26T16:22:58;10.48;;;1.80;;
31618;SDS011;18230;51.502;7.108;2023-06-26T16:27:58;3.88;;;1.63;;
31618;SDS011;18230;51.502;7.108;2023-06-26T16:32:59;7.80;;;1.58;;
31618;SDS011;18230;51.502;7.108;2023-06-26T16:38:00;5.28;;;1.55;;
31618;SDS011;18230;51.502;7.108;2023-06-26T16:43:02;3.50;;;1.20;;
31618;SDS011;18230;51.502;7.108;2023-06-26T16:48:03;4.28;;;2.00;;
31618;SDS011;18230;51.502;7.108;2023-06-26T16:53:04;2.28;;;1.80;;
31618;SDS011;18230;51.502;7.108;2023-06-26T16:58:05;2.25;;;1.23;;
31618;SDS011;18230;51.502;7.108;2023-06-26T17:03:06;9.52;;;1.85;;
31618;SDS011;18230;51.502;7.108;2023-06-26T17:08:07;6.63;;;1.42;;
31618;SDS011;18230;51.502;7.108;2023-06-26T17:13:09;5.43;;;1.42;;
31618;SDS011;18230;51.502;7.108;2023-06-26T17:18:09;6.35;;;1.42;;
31618;SDS011;18230;51.502;7.108;2023-06-26T17:23:10;2.95;;;1.38;;
31618;SDS011;18230;51.502;7.108;2023-06-26T17:28:11;3.30;;;1.52;;
31618;SDS011;18230;51.502;7.108;2023-06-26T17:33:11;4.75;;;1.77;;
31618;SDS011;18230;51.502;7.108;2023-06-26T17:38:12;3.13;;;1.50;;
31618;SDS011;18230;51.502;7.108;2023-06-26T17:43:13;4.32;;;1.73;;
31618;SDS011;18230;51.502;7.108;2023-06-26T17:48:14;4.30;;;1.63;;
31618;SDS011;18230;51.502;7.108;2023-06-26T17:53:14;4.30;;;1.30;;
31618;SDS011;18230;51.502;7.108;2023-06-26T17:58:15;3.25;;;1.55;;
31618;SDS011;18230;51.502;7.108;2023-06-26T18:03:16;4.68;;;1.60;;
31618;SDS011;18230;51.502;7.108;2023-06-26T18:08:17;9.00;;;1.77;;
31618;SDS011;18230;51.502;7.108;2023-06-26T18:13:18;4.43;;;1.88;;
31618;SDS011;18230;51.502;7.108;2023-06-26T18:18:19;5.40;;;1.63;;
31618;SDS011;18230;51.502;7.108;2023-06-26T18:23:20;8.98;;;2.10;;
31618;SDS011;18230;51.502;7.108;2023-06-26T18:28:20;4.70;;;1.70;;
31618;SDS011;18230;51.502;7.108;2023-06-26T18:33:21;3.30;;;1.50;;
31618;SDS011;18230;51.502;7.108;2023-06-26T18:38:22;3.67;;;1.20;;
31618;SDS011;18230;51.502;7.108;2023-06-26T18:43:22;6.05;;;1.60;;
31618;SDS011;18230;51.502;7.108;2023-06-26T18:48:24;5.50;;;1.77;;
31618;SDS011;18230;51.502;7.108;2023-06-26T18:53:24;9.15;;;1.50;;
31618;SDS011;18230;51.502;7.108;2023-06-26T18:58:25;3.95;;;1.50;;
31618;SDS011;18230;51.502;7.108;2023-06-26T19:03:26;2.83;;;1.48;;
31618;SDS011;18230;51.502;7.108;2023-06-26T19:08:27;3.40;;;1.40;;
31618;SDS011;18230;51.502;7.108;2023-06-26T19:13:27;4.20;;;1.38;;
31618;SDS011;18230;51.502;7.108;2023-06-26T19:18:30;2.92;;;1.20;;
31618;SDS011;18230;51.502;7.108;2023-06-26T19:23:32;5.47;;;1.90;;
31618;SDS011;18230;51.502;7.108;2023-06-26T19:28:33;3.08;;;1.45;;
31618;SDS011;18230;51.502;7.108;2023-06-26T19:33:34;3.35;;;1.48;;
31618;SDS011;18230;51.502;7.108;2023-06-26T19:38:35;3.38;;;1.35;;
31618;SDS011;18230;51.502;7.108;2023-06-26T19:43:35;5.30;;;1.60;;
31618;SDS011;18230;51.502;7.108;2023-06-26T19:48:36;4.03;;;1.55;;
31618;SDS011;18230;51.502;7.108;2023-06-26T19:53:37;3.70;;;1.40;;
31618;SDS011;18230;51.502;7.108;2023-06-26T19:58:38;4.13;;;1.42;;
31618;SDS011;18230;51.502;7.108;2023-06-26T20:03:39;2.28;;;1.48;;
31618;SDS011;18230;51.502;7.108;2023-06-26T20:08:39;3.25;;;1.45;;
31618;SDS011;18230;51.502;7.108;2023-06-26T20:13:40;5.20;;;1.63;;
31618;SDS011;18230;51.502;7.108;2023-06-26T20:18:41;3.80;;;1.50;;
31618;SDS011;18230;51.502;7.108;2023-06-26T20:23:41;2.20;;;1.30;;
31618;SDS011;18230;51.502;7.108;2023-06-26T20:28:42;4.82;;;1.42;;
31618;SDS011;18230;51.502;7.108;2023-06-26T20:33:43;2.95;;;1.23;;
31618;SDS011;18230;51.502;7.108;2023-06-26T20:38:44;8.27;;;1.75;;
31618;SDS011;18230;51.502;7.108;2023-06-26T20:43:44;2.72;;;1.35;;
31618;SDS011;18230;51.502;7.108;2023-06-26T20:48:45;4.57;;;1.70;;
31618;SDS011;18230;51.502;7.108;2023-06-26T20:53:46;4.18;;;1.48;;
31618;SDS011;18230;51.502;7.108;2023-06-26T20:58:47;5.03;;;1.60;;
31618;SDS011;18230;51.502;7.108;2023-06-26T21:03:48;4.03;;;1.88;;
31618;SDS011;18230;51.502;7.108;2023-06-26T21:08:49;7.03;;;1.60;;
31618;SDS011;18230;51.502;7.108;2023-06-26T21:13:50;11.15;;;1.80;;
31618;SDS011;18230;51.502;7.108;2023-06-26T21:18:51;4.53;;;1.85;;
31618;SDS011;18230;51.502;7.108;2023-06-26T21:23:51;3.05;;;1.65;;
31618;SDS011;18230;51.502;7.108;2023-06-26T21:28:52;3.50;;;1.50;;
31618;SDS011;18230;51.502;7.108;2023-06-26T21:33:53;3.35;;;1.15;;
31618;SDS011;18230;51.502;7.108;2023-06-26T21:38:53;3.78;;;1.67;;
31618;SDS011;18230;51.502;7.108;2023-06-26T21:43:54;5.05;;;1.63;;
31618;SDS011;18230;51.502;7.108;2023-06-26T21:48:55;3.65;;;1.48;;
31618;SDS011;18230;51.502;7.108;2023-06-26T21:53:55;8.25;;;2.25;;
31618;SDS011;18230;51.502;7.108;2023-06-26T21:58:57;4.93;;;2.22;;
31618;SDS011;18230;51.502;7.108;2023-06-26T22:03:58;6.32;;;1.67;;
31618;SDS011;18230;51.502;7.108;2023-06-26T22:08:59;3.88;;;1.67;;
31618;SDS011;18230;51.502;7.108;2023-06-26T22:13:59;6.57;;;1.90;;
31618;SDS011;18230;51.502;7.108;2023-06-26T22:19:00;5.55;;;1.90;;
31618;SDS011;18230;51.502;7.108;2023-06-26T22:24:01;6.15;;;1.95;;
31618;SDS011;18230;51.502;7.108;2023-06-26T22:29:02;6.38;;;2.15;;
31618;SDS011;18230;51.502;7.108;2023-06-26T22:34:03;4.47;;;1.80;;
31618;SDS011;18230;51.502;7.108;2023-06-26T22:39:03;5.13;;;1.90;;
31618;SDS011;18230;51.502;7.108;2023-06-26T22:44:05;5.75;;;1.90;;
31618;SDS011;18230;51.502;7.108;2023-06-26T22:49:06;8.18;;;1.98;;
31618;SDS011;18230;51.502;7.108;2023-06-26T22:54:06;4.93;;;1.95;;
31618;SDS011;18230;51.502;7.108;2023-06-26T22:59:07;6.22;;;2.10;;
31618;SDS011;18230;51.502;7.108;2023-06-26T23:04:08;5.38;;;2.00;;
31618;SDS011;18230;51.502;7.108;2023-06-26T23:09:09;3.75;;;2.05;;
31618;SDS011;18230;51.502;7.108;2023-06-26T23:14:10;5.63;;;2.08;;
31618;SDS011;18230;51.502;7.108;2023-06-26T23:19:11;5.50;;;2.17;;
31618;SDS011;18230;51.502;7.108;2023-06-26T23:24:12;5.93;;;1.92;;
31618;SDS011;18230;51.502;7.108;2023-06-26T23:29:13;2.45;;;1.60;;
31618;SDS011;18230;51.502;7.108;2023-06-26T23:34:15;6.07;;;1.80;;
31618;SDS011;18230;51.502;7.108;2023-06-26T23:39:19;4.32;;;1.90;;
31618;SDS011;18230;51.502;7.108;2023-06-26T23:44:20;8.18;;;2.05;;
31618;SDS011;18230;51.502;7.108;2023-06-26T23:49:21;4.57;;;2.08;;
31618;SDS011;18230;51.502;7.108;2023-06-26T23:54:22;3.58;;;2.05;;
31618;SDS011;18230;51.502;7.108;2023-06-26T23:59:23;3.17;;;1.80;;
